createdAt,value
2024-04-22T00:01:11.130Z,19.75
2024-04-22T00:03:40.729Z,16.73
2024-04-22T00:06:12.810Z,20.95
2024-04-22T00:08:42.009Z,19.17
2024-04-22T00:11:11.927Z,17.00
2024-04-22T00:13:41.238Z,18.20
2024-04-22T00:16:10.562Z,16.80
2024-04-22T00:18:39.726Z,17.20
2024-04-22T00:21:08.874Z,21.00
2024-04-22T00:23:41.100Z,18.02
2024-04-22T00:26:10.262Z,15.68
2024-04-22T00:28:40.034Z,18.00
2024-04-22T00:31:09.530Z,16.60
2024-04-22T00:33:39.011Z,20.08
2024-04-22T00:36:08.684Z,18.20
2024-04-22T00:38:40.839Z,17.65
2024-04-22T00:41:09.975Z,17.60
2024-04-22T00:43:39.241Z,18.50
2024-04-22T00:46:09.032Z,16.77
2024-04-22T00:48:38.412Z,16.10
2024-04-22T00:51:07.924Z,15.57
2024-04-22T00:53:40.801Z,15.52
2024-04-22T00:56:10.984Z,16.50
2024-04-22T00:58:40.859Z,20.55
2024-04-22T01:01:12.413Z,16.73
2024-04-22T01:03:43.202Z,16.88
2024-04-22T01:06:12.404Z,18.85
2024-04-22T01:08:44.609Z,17.77
2024-04-22T01:11:14.115Z,20.58
2024-04-22T01:13:43.426Z,20.08
2024-04-22T01:16:12.692Z,21.38
2024-04-22T01:18:41.888Z,16.10
2024-04-22T01:21:11.032Z,16.20
2024-04-22T01:23:45.762Z,17.92
2024-04-22T01:26:15.292Z,19.02
2024-04-22T01:28:44.498Z,18.25
2024-04-22T01:31:13.907Z,17.50
2024-04-22T01:33:43.068Z,17.75
2024-04-22T01:36:12.270Z,19.23
2024-04-22T01:38:44.474Z,20.02
2024-04-22T01:41:13.650Z,16.27
2024-04-22T01:43:42.896Z,19.13
2024-04-22T01:46:12.227Z,17.95
2024-04-22T01:48:41.573Z,22.52
2024-04-22T01:51:10.816Z,18.85
2024-04-22T01:53:42.905Z,21.08
2024-04-22T01:56:12.104Z,19.70
2024-04-22T01:58:41.358Z,20.17
2024-04-22T02:01:11.501Z,20.60
2024-04-22T02:03:40.819Z,19.42
2024-04-22T02:06:10.566Z,17.75
2024-04-22T02:08:39.736Z,17.58
2024-04-22T02:11:12.804Z,18.42
2024-04-22T02:13:42.035Z,21.40
2024-04-22T02:16:11.187Z,18.98
2024-04-22T02:18:40.379Z,18.23
2024-04-22T02:21:09.535Z,20.83
2024-04-22T02:23:38.701Z,18.92
2024-04-22T02:26:07.916Z,17.77
2024-04-22T02:28:40.093Z,20.73
2024-04-22T02:31:09.315Z,20.05
2024-04-22T02:33:38.771Z,19.23
2024-04-22T02:36:08.646Z,18.45
2024-04-22T02:38:37.836Z,18.52
2024-04-22T02:41:07.132Z,20.08
2024-04-22T02:43:39.491Z,17.95
2024-04-22T02:46:08.701Z,18.10
2024-04-22T02:48:37.863Z,20.33
2024-04-22T02:51:07.242Z,20.38
2024-04-22T02:53:36.346Z,20.50
2024-04-22T02:56:05.763Z,19.58
2024-04-22T02:58:35.249Z,21.92
2024-04-22T03:01:10.584Z,20.25
2024-04-22T03:03:39.774Z,19.40
2024-04-22T03:06:09.158Z,20.42
2024-04-22T03:08:39.828Z,19.92
2024-04-22T03:11:08.977Z,20.92
2024-04-22T03:13:38.142Z,21.77
2024-04-22T03:16:10.470Z,21.80
2024-04-22T03:18:39.669Z,26.27
2024-04-22T03:21:08.836Z,25.38
2024-04-22T03:23:38.568Z,21.30
2024-04-22T03:26:07.848Z,27.08
2024-04-22T03:28:39.648Z,29.88
2024-04-22T03:31:11.818Z,24.88
2024-04-22T03:33:41.018Z,25.15
2024-04-22T03:36:10.855Z,26.88
2024-04-22T03:38:40.011Z,30.67
2024-04-22T03:41:09.248Z,27.05
2024-04-22T03:43:38.541Z,30.25
2024-04-22T03:46:26.458Z,32.47
2024-04-22T03:49:17.140Z,34.25
2024-04-22T03:51:46.798Z,33.42
2024-04-22T03:54:16.294Z,29.70
2024-04-22T03:56:45.504Z,32.88
2024-04-22T03:59:14.653Z,29.38
2024-04-22T04:01:44.621Z,29.33
2024-04-22T04:04:16.960Z,35.58
2024-04-22T04:06:46.294Z,37.20
2024-04-22T04:09:16.043Z,38.17
2024-04-22T04:11:45.234Z,36.20
2024-04-22T04:14:14.539Z,38.75
2024-04-22T04:16:43.742Z,41.97
2024-04-22T04:19:15.881Z,36.65
2024-04-22T04:21:45.610Z,37.38
2024-04-22T04:24:15.808Z,39.08
2024-04-22T04:26:45.041Z,38.85
2024-04-22T04:29:14.484Z,38.95
2024-04-22T04:31:43.792Z,40.22
2024-04-22T04:34:16.261Z,35.85
2024-04-22T04:36:45.384Z,39.53
2024-04-22T04:39:14.531Z,36.90
2024-04-22T04:41:43.691Z,44.97
2024-04-22T04:44:12.914Z,42.05
2024-04-22T04:46:42.147Z,42.75
2024-04-22T04:49:12.591Z,40.40
2024-04-22T04:51:44.867Z,44.55
2024-04-22T04:54:14.142Z,44.28
2024-04-22T04:56:43.329Z,39.33
2024-04-22T04:59:12.491Z,41.08
2024-04-22T05:01:41.959Z,39.22
2024-04-22T05:04:11.547Z,40.42
2024-04-22T05:06:44.437Z,44.72
2024-04-22T05:09:13.738Z,38.63
2024-04-22T05:11:43.627Z,40.67
2024-04-22T05:14:12.795Z,39.08
2024-04-22T05:16:42.065Z,34.80
2024-04-22T05:19:11.299Z,37.55
2024-04-22T05:21:40.566Z,33.85
2024-04-22T05:24:16.215Z,34.63
2024-04-22T05:26:45.474Z,36.95
2024-04-22T05:29:14.641Z,36.50
2024-04-22T05:31:43.878Z,35.28
2024-04-22T05:34:31.671Z,37.33
2024-04-22T05:37:00.866Z,37.10
2024-04-22T05:39:32.910Z,36.50
2024-04-22T05:42:02.091Z,33.75
2024-04-22T05:44:31.264Z,39.90
2024-04-22T05:47:00.442Z,40.33
2024-04-22T05:49:29.592Z,44.15
2024-04-22T05:52:00.744Z,40.15
2024-04-22T05:54:34.286Z,40.38
2024-04-22T05:57:03.608Z,41.70
2024-04-22T05:59:32.704Z,40.53
2024-04-22T06:02:02.033Z,39.58
2024-04-22T06:04:34.152Z,40.05
2024-04-22T06:07:03.355Z,39.90
2024-04-22T06:09:35.409Z,36.55
2024-04-22T06:12:15.151Z,43.15
2024-04-22T06:14:48.418Z,42.35
2024-04-22T06:17:17.627Z,44.88
2024-04-22T06:19:46.889Z,41.70
2024-04-22T06:22:16.151Z,44.05
2024-04-22T06:24:49.449Z,46.80
2024-04-22T06:27:18.603Z,44.33
2024-04-22T06:29:47.851Z,39.72
2024-04-22T06:32:17.217Z,42.30
2024-04-22T06:34:46.466Z,41.38
2024-04-22T06:37:15.747Z,47.80
2024-04-22T06:39:47.944Z,44.17
2024-04-22T06:42:17.089Z,47.67
2024-04-22T06:44:46.176Z,50.83
2024-04-22T06:47:15.434Z,47.58
2024-04-22T06:49:44.631Z,47.50
2024-04-22T06:52:13.859Z,46.63
2024-04-22T06:54:43.174Z,49.22
2024-04-22T06:57:15.215Z,45.63
2024-04-22T06:59:45.798Z,47.20
2024-04-22T07:02:19.330Z,48.20
2024-04-22T07:04:50.956Z,49.43
2024-04-22T07:07:20.843Z,44.80
2024-04-22T07:09:50.009Z,51.15
2024-04-22T07:12:22.513Z,42.75
2024-04-22T07:14:51.753Z,47.60
2024-04-22T07:17:21.363Z,47.63
2024-04-22T07:19:55.576Z,42.38
2024-04-22T07:22:29.599Z,42.67
2024-04-22T07:25:03.709Z,45.88
2024-04-22T07:27:37.657Z,48.92
2024-04-22T07:30:08.368Z,48.42
2024-04-22T07:32:38.639Z,48.42
2024-04-22T07:35:08.977Z,45.63
2024-04-22T07:37:42.386Z,46.42
2024-04-22T07:40:18.033Z,44.42
2024-04-22T07:42:50.585Z,47.92
2024-04-22T07:45:21.154Z,44.55
2024-04-22T07:47:54.278Z,44.42
2024-04-22T07:50:23.718Z,50.78
2024-04-22T07:52:53.492Z,43.33
2024-04-22T07:55:23.419Z,52.15
2024-04-22T07:57:56.341Z,44.47
2024-04-22T08:00:26.636Z,45.45
2024-04-22T08:02:56.455Z,48.17
2024-04-22T08:05:26.436Z,49.38
2024-04-22T08:08:03.302Z,52.85
2024-04-22T08:10:32.602Z,46.75
2024-04-22T08:13:05.814Z,48.83
2024-04-22T08:15:35.423Z,46.80
2024-04-22T08:18:04.619Z,49.08
2024-04-22T08:20:33.811Z,49.15
2024-04-22T08:23:02.929Z,43.83
2024-04-22T08:25:32.157Z,47.78
2024-04-22T08:28:04.247Z,48.92
2024-04-22T08:30:34.141Z,50.20
2024-04-22T08:33:03.501Z,46.13
2024-04-22T08:35:33.009Z,51.67
2024-04-22T08:38:02.276Z,50.15
2024-04-22T08:40:31.922Z,47.65
2024-04-22T08:43:04.059Z,48.88
2024-04-22T08:45:33.189Z,51.55
2024-04-22T08:48:04.956Z,46.25
2024-04-22T08:50:34.622Z,54.38
2024-04-22T08:53:05.430Z,56.47
2024-04-22T08:55:35.093Z,54.15
2024-04-22T08:58:08.107Z,46.83
2024-04-22T09:00:37.393Z,48.38
2024-04-22T09:03:08.988Z,45.63
2024-04-22T09:05:41.441Z,47.95
2024-04-22T09:08:11.912Z,49.17
2024-04-22T09:11:12.096Z,49.53
2024-04-22T09:13:35.051Z,51.97
2024-04-22T09:16:04.442Z,46.67
2024-04-22T09:18:36.251Z,52.72
2024-04-22T09:21:09.710Z,49.67
2024-04-22T09:23:39.537Z,53.95
2024-04-22T09:26:09.437Z,53.83
2024-04-22T09:28:42.124Z,48.47
2024-04-22T09:31:12.272Z,52.80
2024-04-22T09:33:43.918Z,48.38
2024-04-22T09:36:13.747Z,49.70
2024-04-22T09:38:47.424Z,49.22
2024-04-22T09:41:20.646Z,49.17
2024-04-22T09:43:58.769Z,53.90
2024-04-22T09:46:35.103Z,54.35
2024-04-22T09:49:07.722Z,49.25
2024-04-22T09:51:38.296Z,50.95
2024-04-22T09:54:07.898Z,48.20
2024-04-22T09:56:40.399Z,50.03
2024-04-22T09:59:13.027Z,46.35
2024-04-22T10:01:42.895Z,51.13
2024-04-22T10:04:14.566Z,53.33
2024-04-22T10:06:44.316Z,55.20
2024-04-22T10:09:18.676Z,51.47
2024-04-22T10:11:49.491Z,52.85
2024-04-22T10:14:23.019Z,50.40
2024-04-22T10:16:59.209Z,51.53
2024-04-22T10:22:02.238Z,49.03
2024-04-22T10:24:32.888Z,51.65
2024-04-22T10:27:09.911Z,50.75
2024-04-22T10:29:44.904Z,50.70
2024-04-22T10:32:14.112Z,50.78
2024-04-22T10:34:46.330Z,53.38
2024-04-22T10:37:15.763Z,54.05
2024-04-22T10:39:46.020Z,56.17
2024-04-22T10:42:15.441Z,51.92
2024-04-22T10:44:47.913Z,53.42
2024-04-22T10:47:17.146Z,54.65
2024-04-22T10:49:48.863Z,56.78
2024-04-22T10:52:18.311Z,56.88
2024-04-22T10:54:51.007Z,54.83
2024-04-22T10:57:22.133Z,56.38
2024-04-22T10:59:55.018Z,55.97
2024-04-22T11:02:25.447Z,51.15
2024-04-22T11:04:55.510Z,51.45
2024-04-22T11:07:25.819Z,53.53
2024-04-22T11:09:55.355Z,46.65
2024-04-22T11:12:27.407Z,47.90
2024-04-22T11:15:02.251Z,53.00
2024-04-22T11:17:31.651Z,52.58
2024-04-22T11:20:11.033Z,58.78
2024-04-22T11:22:40.514Z,51.42
2024-04-22T11:25:10.536Z,50.13
2024-04-22T11:27:39.916Z,48.45
2024-04-22T11:30:12.939Z,50.42
2024-04-22T11:32:42.406Z,47.15
2024-04-22T11:35:11.762Z,51.15
2024-04-22T11:37:41.047Z,52.00
2024-04-22T11:40:12.235Z,51.28
2024-04-22T11:42:41.526Z,49.03
2024-04-22T11:45:13.733Z,54.20
2024-04-22T11:47:43.000Z,51.85
2024-04-22T11:50:12.160Z,49.97
2024-04-22T11:52:41.486Z,55.78
2024-04-22T11:55:10.928Z,51.20
2024-04-22T11:57:43.094Z,51.00
2024-04-22T12:00:15.468Z,49.00
2024-04-22T12:02:44.638Z,54.78
2024-04-22T12:05:16.530Z,52.85
2024-04-22T12:07:46.349Z,54.13
2024-04-22T12:10:15.955Z,52.30
2024-04-22T12:12:45.297Z,51.30
2024-04-22T12:15:18.662Z,51.78
2024-04-22T12:17:47.873Z,50.03
2024-04-22T12:20:17.241Z,50.13
2024-04-22T12:22:46.491Z,48.60
2024-04-22T12:25:15.779Z,48.90
2024-04-22T12:27:45.019Z,51.72
2024-04-22T12:30:17.261Z,49.85
2024-04-22T12:32:46.907Z,49.42
2024-04-22T12:35:16.332Z,47.67
2024-04-22T12:37:45.672Z,51.28
2024-04-22T12:40:14.978Z,55.35
2024-04-22T12:42:44.142Z,48.38
2024-04-22T12:45:13.365Z,52.55
2024-04-22T12:48:03.767Z,51.95
2024-04-22T12:50:45.173Z,52.63
2024-04-22T12:53:14.692Z,48.70
2024-04-22T12:55:44.069Z,52.35
2024-04-22T12:58:13.277Z,52.53
2024-04-22T13:00:42.927Z,50.03
2024-04-22T13:03:15.342Z,49.92
2024-04-22T13:05:44.623Z,51.90
2024-04-22T13:08:13.831Z,46.47
2024-04-22T13:10:43.148Z,49.78
2024-04-22T13:13:12.339Z,47.17
2024-04-22T13:15:42.124Z,51.83
2024-04-22T13:18:16.020Z,50.55
2024-04-22T13:20:45.250Z,46.45
2024-04-22T13:23:14.463Z,46.95
2024-04-22T13:25:45.360Z,50.05
2024-04-22T13:28:14.603Z,48.55
2024-04-22T13:30:45.443Z,53.00
2024-04-22T13:33:17.764Z,50.83
2024-04-22T13:35:47.191Z,52.58
2024-04-22T13:38:16.420Z,50.05
2024-04-22T13:40:45.715Z,49.00
2024-04-22T13:43:15.165Z,51.40
2024-04-22T13:45:44.360Z,47.75
2024-04-22T13:48:16.566Z,51.35
2024-04-22T13:50:45.812Z,51.65
2024-04-22T13:53:23.448Z,49.25
2024-04-22T13:56:00.234Z,45.03
2024-04-22T13:58:29.490Z,49.28
2024-04-22T14:00:58.831Z,50.70
2024-04-22T14:03:31.038Z,46.90
2024-04-22T14:06:00.835Z,52.53
2024-04-22T14:08:30.003Z,49.72
2024-04-22T14:10:59.629Z,50.22
2024-04-22T14:13:28.932Z,56.80
2024-04-22T14:15:58.587Z,51.03
2024-04-22T14:18:30.805Z,48.85
2024-04-22T14:21:00.210Z,54.65
2024-04-22T14:23:29.555Z,49.58
2024-04-22T14:25:59.260Z,49.20
2024-04-22T14:28:30.504Z,47.40
2024-04-22T14:30:59.706Z,45.70
2024-04-22T14:33:31.912Z,51.70
2024-04-22T14:36:01.273Z,46.97
2024-04-22T14:38:30.508Z,50.08
2024-04-22T14:40:59.717Z,50.17
2024-04-22T14:43:29.924Z,52.72
2024-04-22T14:45:59.137Z,48.72
2024-04-22T14:48:31.275Z,52.03
2024-04-22T14:51:00.558Z,51.60
2024-04-22T14:53:29.700Z,49.30
2024-04-22T14:55:58.926Z,52.22
2024-04-22T14:58:28.214Z,54.00
2024-04-22T15:00:57.450Z,57.00
2024-04-22T15:03:26.859Z,56.10
2024-04-22T15:05:58.937Z,55.38
2024-04-22T15:08:29.037Z,57.28
2024-04-22T15:10:58.326Z,55.90
2024-04-22T15:13:27.617Z,57.08
2024-04-22T15:15:56.851Z,57.22
2024-04-22T15:18:27.181Z,57.33
2024-04-22T15:20:59.353Z,61.55
2024-04-22T15:23:31.270Z,58.30
2024-04-22T15:26:00.511Z,56.35
2024-04-22T15:28:29.896Z,55.35
2024-04-22T15:30:59.693Z,56.45
2024-04-22T15:33:30.010Z,55.95
2024-04-22T15:36:05.130Z,59.60
2024-04-22T15:38:34.415Z,63.20
2024-04-22T15:41:03.798Z,58.15
2024-04-22T15:43:33.213Z,60.03
2024-04-22T15:46:02.372Z,57.08
2024-04-22T15:48:31.696Z,61.55
2024-04-22T15:51:03.831Z,61.58
2024-04-22T15:53:33.059Z,54.78
2024-04-22T15:56:02.686Z,50.90
2024-04-22T15:58:32.142Z,51.78
2024-04-22T16:01:01.573Z,51.70
2024-04-22T16:03:32.931Z,51.45
2024-04-22T16:06:05.332Z,52.03
2024-04-22T16:08:34.580Z,57.10
2024-04-22T16:11:03.793Z,61.60
2024-04-22T16:13:33.067Z,57.03
2024-04-22T16:16:03.774Z,58.63
2024-04-22T16:18:33.803Z,57.80
2024-04-22T16:21:15.290Z,56.13
2024-04-22T16:23:46.556Z,58.40
2024-04-22T16:26:17.882Z,54.22
2024-04-22T16:28:47.904Z,55.28
2024-04-22T16:31:17.377Z,55.85
2024-04-22T16:33:46.559Z,51.63
2024-04-22T16:36:18.663Z,53.28
2024-04-22T16:38:48.076Z,50.38
2024-04-22T16:41:17.285Z,51.63
2024-04-22T16:43:46.555Z,56.38
2024-04-22T16:46:15.778Z,57.60
2024-04-22T16:48:45.085Z,55.33
2024-04-22T16:51:17.312Z,54.58
2024-04-22T16:53:49.429Z,59.80
2024-04-22T16:56:20.320Z,57.80
2024-04-22T16:58:49.643Z,58.70
2024-04-22T17:01:18.943Z,64.45
2024-04-22T17:03:48.280Z,65.30
2024-04-22T17:06:20.489Z,63.50
2024-04-22T17:08:51.024Z,59.47
2024-04-22T17:11:20.247Z,61.20
2024-04-22T17:13:49.604Z,62.72
2024-04-22T17:16:23.049Z,59.80
2024-04-22T17:18:54.964Z,68.15
2024-04-22T17:21:27.298Z,63.30
2024-04-22T17:23:57.293Z,62.55
2024-04-22T17:26:26.828Z,64.72
2024-04-22T17:28:56.202Z,66.30
2024-04-22T17:31:28.669Z,62.30
2024-04-22T17:33:57.993Z,65.70
2024-04-22T17:36:29.996Z,61.45
2024-04-22T17:38:59.206Z,66.35
2024-04-22T17:41:29.258Z,62.92
2024-04-22T17:43:58.523Z,64.80
2024-04-22T17:46:27.964Z,71.88
2024-04-22T17:48:57.167Z,68.72
2024-04-22T17:51:29.256Z,67.25
2024-04-22T17:53:58.576Z,65.70
2024-04-22T17:56:28.023Z,66.93
2024-04-22T17:58:57.274Z,62.17
2024-04-22T18:01:26.576Z,66.22
2024-04-22T18:03:55.757Z,62.92
2024-04-22T18:06:24.969Z,68.70
2024-04-22T18:08:57.148Z,58.95
2024-04-22T18:11:26.646Z,56.45
2024-04-22T18:13:55.828Z,60.63
2024-04-22T18:16:25.100Z,54.05
2024-04-22T18:18:55.031Z,59.08
2024-04-22T18:21:26.110Z,53.38
2024-04-22T18:23:58.526Z,53.28
2024-04-22T18:26:27.763Z,54.78
2024-04-22T18:28:56.899Z,48.50
2024-04-22T18:31:26.234Z,50.50
2024-04-22T18:33:55.445Z,48.92
2024-04-22T18:36:25.285Z,52.45
2024-04-22T18:38:57.459Z,50.15
2024-04-22T18:41:26.654Z,52.72
2024-04-22T18:43:55.889Z,44.53
2024-04-22T18:46:25.213Z,46.40
2024-04-22T18:48:54.391Z,45.55
2024-04-22T18:51:25.958Z,50.67
2024-04-22T18:53:58.072Z,45.22
2024-04-22T18:56:27.249Z,47.63
2024-04-22T18:58:56.449Z,51.42
2024-04-22T19:04:18.256Z,53.15
2024-04-22T19:06:47.788Z,49.17
2024-04-22T19:09:19.781Z,40.38
2024-04-22T19:11:49.101Z,46.63
2024-04-22T19:14:18.324Z,42.42
2024-04-22T19:16:47.587Z,45.00
2024-04-22T19:19:17.308Z,51.03
2024-04-22T19:21:46.439Z,46.67
2024-04-22T19:24:15.612Z,46.47
2024-04-22T19:26:47.706Z,43.00
2024-04-22T19:29:16.888Z,46.88
2024-04-22T19:31:46.661Z,43.38
2024-04-22T19:34:16.120Z,38.42
2024-04-22T19:36:45.347Z,40.65
2024-04-22T19:39:14.487Z,44.85
2024-04-22T19:41:46.165Z,44.83
2024-04-22T19:44:18.344Z,41.05
2024-04-22T19:46:47.733Z,40.45
2024-04-22T19:49:16.944Z,41.15
2024-04-22T19:51:46.097Z,44.70
2024-04-22T19:54:15.246Z,49.20
2024-04-22T19:56:44.406Z,46.50
2024-04-22T19:59:13.509Z,41.83
2024-04-22T20:01:46.282Z,37.17
2024-04-22T20:04:15.531Z,39.78
2024-04-22T20:06:44.733Z,42.25
2024-04-22T20:09:14.004Z,41.58
2024-04-22T20:11:43.243Z,44.20
2024-04-22T20:14:12.485Z,43.03
2024-04-22T20:17:01.224Z,38.70
2024-04-22T20:19:33.826Z,35.67
2024-04-22T20:22:05.012Z,37.70
2024-04-22T20:24:34.185Z,37.45
2024-04-22T20:27:03.895Z,40.30
2024-04-22T20:29:34.329Z,43.13
2024-04-22T20:32:06.890Z,41.47
2024-04-22T20:34:36.259Z,35.22
2024-04-22T20:37:05.507Z,40.15
2024-04-22T20:39:34.719Z,34.30
2024-04-22T20:42:03.886Z,35.30
2024-04-22T20:44:33.079Z,32.92
2024-04-22T20:47:05.880Z,35.42
2024-04-22T20:49:35.138Z,35.00
2024-04-22T20:52:04.517Z,30.85
2024-04-22T20:54:33.729Z,26.75
2024-04-22T20:57:03.143Z,29.83
2024-04-22T20:59:33.421Z,27.58
2024-04-22T21:02:05.949Z,28.25
2024-04-22T21:04:35.178Z,24.92
2024-04-22T21:07:06.129Z,29.88
2024-04-22T21:09:35.436Z,28.45
2024-04-22T21:12:04.763Z,25.73
2024-04-22T21:14:33.973Z,26.75
2024-04-22T21:17:06.147Z,22.75
2024-04-22T21:19:35.851Z,24.55
2024-04-22T21:22:05.071Z,23.92
2024-04-22T21:24:34.339Z,23.95
2024-04-22T21:27:03.708Z,24.08
2024-04-22T21:29:32.918Z,20.60
2024-04-22T21:32:05.176Z,22.02
2024-04-22T21:34:34.546Z,22.50
2024-04-22T21:37:03.818Z,20.73
2024-04-22T21:39:32.982Z,22.73
2024-04-22T21:42:02.180Z,22.42
2024-04-22T21:44:31.454Z,21.88
2024-04-22T21:47:00.704Z,21.52
2024-04-22T21:49:32.843Z,22.15
2024-04-22T21:52:02.053Z,21.75
2024-04-22T21:54:33.017Z,22.15
2024-04-22T21:57:38.180Z,20.13
2024-04-22T22:00:43.452Z,22.60
2024-04-22T22:03:48.679Z,25.92
2024-04-22T22:06:54.133Z,23.33
2024-04-22T22:09:29.617Z,26.98
2024-04-22T22:11:58.885Z,22.95
2024-04-22T22:14:28.602Z,25.05
2024-04-22T22:16:58.127Z,25.73
2024-04-22T22:19:27.961Z,21.23
2024-04-22T22:21:57.807Z,23.52
2024-04-22T22:24:38.248Z,25.75
2024-04-22T22:27:07.964Z,23.95
2024-04-22T22:29:37.492Z,21.88
2024-04-22T22:32:07.357Z,19.17
2024-04-22T22:34:36.768Z,21.05
2024-04-22T22:37:06.886Z,20.42
2024-04-22T22:39:38.950Z,17.85
2024-04-22T22:42:08.272Z,19.20
2024-04-22T22:44:37.387Z,20.08
2024-04-22T22:47:08.744Z,19.52
2024-04-22T22:49:38.051Z,19.83
2024-04-22T22:54:56.751Z,22.17
2024-04-22T22:57:27.047Z,18.85
2024-04-22T22:59:56.233Z,20.30
2024-04-22T23:02:26.485Z,21.13
2024-04-22T23:07:42.889Z,16.75
2024-04-22T23:10:15.100Z,21.45
2024-04-22T23:12:44.301Z,17.80
2024-04-22T23:15:13.518Z,16.80
2024-04-22T23:17:42.664Z,19.30
2024-04-22T23:20:12.038Z,18.50
2024-04-22T23:22:41.661Z,15.95
2024-04-22T23:27:59.698Z,16.10
2024-04-22T23:30:28.880Z,15.82
2024-04-22T23:32:58.122Z,17.67
2024-04-22T23:35:27.410Z,15.77
2024-04-22T23:37:56.741Z,14.48
2024-04-22T23:40:26.027Z,16.08
2024-04-22T23:42:55.890Z,13.52
2024-04-22T23:45:27.964Z,11.73
2024-04-22T23:47:57.189Z,14.50
2024-04-22T23:50:26.417Z,12.27
2024-04-22T23:52:55.673Z,12.85
2024-04-22T23:55:24.974Z,14.50
2024-04-22T23:57:54.081Z,11.38
